Time;durP1;ratioP1;P1;durP2;ratioP2;P2;SDS_P1;SDS_P2;PMS_P1;PMS_P2;Temp;Humidity;BMP_temperature;BMP_pressure;BME280_temperature;BME280_humidity;BME280_pressure;Samples;Min_cycle;Max_cycle;Signal;HPM_P1;HPM_P2
2023/01/08 00:01:14;;;;;;;2.37;1.70;;;8.10;99.90;;;;;;4852176;29;20181;-88
2023/01/08 00:03:42;;;;;;;2.13;1.50;;;8.10;99.90;;;;;;4851786;29;20211;-88
2023/01/08 00:06:12;;;;;;;2.28;1.60;;;8.10;99.90;;;;;;4868178;29;20605;-89
2023/01/08 00:08:38;;;;;;;3.70;2.42;;;8.10;99.90;;;;;;4851816;29;20193;-89
2023/01/08 00:11:04;;;;;;;2.23;1.60;;;8.10;99.90;;;;;;4851289;29;20275;-88
2023/01/08 00:13:34;;;;;;;2.05;1.40;;;8.10;99.90;;;;;;4851813;29;20243;-89
2023/01/08 00:16:12;;;;;;;3.33;1.67;;;8.10;99.90;;;;;;4876830;29;20173;-93
2023/01/08 00:18:39;;;;;;;2.73;1.70;;;8.00;99.90;;;;;;4863828;29;20240;-93
2023/01/08 00:21:05;;;;;;;2.38;1.85;;;8.10;99.90;;;;;;4866273;29;20181;-89
2023/01/08 00:23:37;;;;;;;3.17;1.90;;;8.00;99.90;;;;;;4865659;29;20236;-95
2023/01/08 00:26:05;;;;;;;3.55;1.70;;;8.00;99.90;;;;;;4884834;29;20196;-89
2023/01/08 00:28:32;;;;;;;2.45;1.73;;;7.90;99.90;;;;;;4855831;29;20187;-89
2023/01/08 00:30:57;;;;;;;2.60;1.80;;;7.80;99.90;;;;;;4852549;29;20341;-90
2023/01/08 00:33:31;;;;;;;3.58;1.60;;;7.80;99.90;;;;;;4868659;29;20232;-89
2023/01/08 00:35:57;;;;;;;2.13;1.42;;;7.60;99.90;;;;;;4853071;29;20193;-88
2023/01/08 00:38:28;;;;;;;3.10;1.70;;;7.60;99.90;;;;;;4853104;29;20252;-88
2023/01/08 00:40:54;;;;;;;2.17;1.60;;;7.60;99.90;;;;;;4868874;29;20181;-89
2023/01/08 00:43:20;;;;;;;2.47;1.60;;;7.60;99.90;;;;;;4852163;29;20276;-88
2023/01/08 00:45:46;;;;;;;4.47;1.80;;;7.80;99.90;;;;;;4852060;29;20252;-89
2023/01/08 00:48:11;;;;;;;2.47;1.58;;;7.90;99.90;;;;;;4852202;29;20215;-92
2023/01/08 00:50:37;;;;;;;2.30;1.60;;;8.00;99.90;;;;;;4852123;29;20300;-88
2023/01/08 00:53:03;;;;;;;2.50;1.83;;;8.10;99.90;;;;;;4851802;29;20228;-88
2023/01/08 00:55:29;;;;;;;3.88;1.55;;;8.10;99.90;;;;;;4852961;29;20189;-88
2023/01/08 00:57:56;;;;;;;2.03;1.40;;;8.10;99.90;;;;;;4851993;29;20226;-87
2023/01/08 01:00:23;;;;;;;2.30;1.90;;;8.10;99.90;;;;;;4851847;29;20185;-88
2023/01/08 01:02:48;;;;;;;2.97;1.97;;;8.20;99.90;;;;;;4852563;29;20199;-87
2023/01/08 01:05:18;;;;;;;2.33;1.63;;;8.20;99.90;;;;;;4852026;29;20523;-87
2023/01/08 01:07:44;;;;;;;2.58;1.70;;;8.20;99.90;;;;;;4852109;29;20620;-88
2023/01/08 01:10:12;;;;;;;2.85;1.70;;;8.20;99.90;;;;;;4853430;29;20189;-88
2023/01/08 01:12:38;;;;;;;3.50;2.20;;;8.30;99.90;;;;;;4869809;29;20212;-87
2023/01/08 01:15:06;;;;;;;3.23;1.90;;;8.30;99.90;;;;;;4852979;29;20593;-87
2023/01/08 01:17:33;;;;;;;2.37;2.00;;;8.30;99.90;;;;;;4852565;29;20220;-90
2023/01/08 01:19:59;;;;;;;3.03;1.88;;;8.30;99.90;;;;;;4853327;29;20279;-89
2023/01/08 01:22:24;;;;;;;3.88;2.40;;;8.40;99.90;;;;;;4869451;29;20266;-86
2023/01/08 01:24:50;;;;;;;3.33;1.80;;;8.50;99.90;;;;;;4853060;29;20197;-87
2023/01/08 01:27:16;;;;;;;4.95;2.00;;;8.40;99.90;;;;;;4853561;29;20185;-87
2023/01/08 01:29:42;;;;;;;2.63;1.80;;;8.40;99.90;;;;;;4837184;29;20199;-92
2023/01/08 01:32:07;;;;;;;4.83;2.10;;;8.40;99.90;;;;;;4851345;29;20272;-87
2023/01/08 01:34:34;;;;;;;3.78;1.88;;;8.50;99.90;;;;;;4852318;29;20612;-88
2023/01/08 01:37:00;;;;;;;3.65;2.10;;;8.50;99.90;;;;;;4853306;29;20173;-85
2023/01/08 01:39:26;;;;;;;4.32;2.33;;;8.50;99.90;;;;;;4852579;29;20184;-87
2023/01/08 01:41:52;;;;;;;3.87;2.33;;;8.60;99.90;;;;;;4851991;29;20184;-91
2023/01/08 01:44:43;;;;;;;3.35;2.25;;;8.60;99.90;;;;;;4849745;29;20187;-88
2023/01/08 01:47:21;;;;;;;3.00;2.00;;;8.70;99.90;;;;;;4868837;29;20631;-92
2023/01/08 01:50:00;;;;;;;2.53;2.10;;;8.60;99.90;;;;;;4851492;29;20177;-90
2023/01/08 01:52:29;;;;;;;4.43;1.90;;;8.60;99.90;;;;;;4850070;29;20192;-90
2023/01/08 01:55:06;;;;;;;5.43;2.00;;;8.50;99.90;;;;;;4850725;29;20233;-88
2023/01/08 01:57:32;;;;;;;3.60;2.17;;;8.40;99.90;;;;;;4851946;29;20259;-93
2023/01/08 02:00:03;;;;;;;2.97;1.85;;;8.40;99.90;;;;;;4849779;29;20209;-88
2023/01/08 02:02:31;;;;;;;2.55;2.20;;;8.30;99.90;;;;;;4867977;29;20209;-88
2023/01/08 02:05:01;;;;;;;4.35;2.20;;;8.30;99.90;;;;;;4852873;29;20191;-88
2023/01/08 02:07:41;;;;;;;3.33;2.13;;;8.30;99.90;;;;;;4852714;29;20173;-91
2023/01/08 02:10:16;;;;;;;3.55;1.98;;;8.30;99.90;;;;;;4849598;29;20508;-89
2023/01/08 02:12:47;;;;;;;2.60;2.10;;;8.30;99.90;;;;;;4851901;29;20217;-88
2023/01/08 02:15:59;;;;;;;3.33;1.75;;;8.30;99.90;;;;;;4851569;29;20233;-87
2023/01/08 02:18:36;;;;;;;2.63;2.10;;;8.30;99.90;;;;;;4810502;29;20186;-88
2023/01/08 02:21:11;;;;;;;3.22;2.47;;;8.40;99.90;;;;;;4848078;29;20209;-95
2023/01/08 02:23:43;;;;;;;3.08;2.00;;;8.30;99.90;;;;;;4848759;29;20235;-89
2023/01/08 02:26:25;;;;;;;3.05;2.17;;;8.40;99.90;;;;;;4866156;29;20185;-88
2023/01/08 02:29:09;;;;;;;6.53;2.17;;;8.40;99.90;;;;;;4849135;29;20642;-88
2023/01/08 02:31:39;;;;;;;4.97;2.35;;;8.40;99.90;;;;;;4849721;29;20527;-87
2023/01/08 02:34:05;;;;;;;4.18;2.50;;;8.40;99.90;;;;;;4850494;29;20228;-89
2023/01/08 02:36:50;;;;;;;5.85;2.50;;;8.50;99.90;;;;;;4836826;29;20185;-90
2023/01/08 02:39:33;;;;;;;4.18;2.30;;;8.50;99.90;;;;;;4852788;29;20184;-88
2023/01/08 02:42:15;;;;;;;2.97;2.22;;;8.60;99.90;;;;;;4868505;29;20176;-91
2023/01/08 02:45:04;;;;;;;4.68;2.42;;;8.70;99.90;;;;;;4851295;29;20271;-88
2023/01/08 02:47:43;;;;;;;3.38;2.17;;;8.70;99.90;;;;;;4866924;29;20241;-88
2023/01/08 02:50:12;;;;;;;4.70;2.53;;;8.70;99.90;;;;;;4851646;29;20205;-91
2023/01/08 02:53:03;;;;;;;3.78;2.58;;;8.70;99.90;;;;;;4851122;29;20216;-91
2023/01/08 02:55:37;;;;;;;3.33;2.47;;;8.80;99.90;;;;;;4849706;29;20181;-85
2023/01/08 02:58:05;;;;;;;4.55;2.50;;;8.80;99.90;;;;;;4850753;29;20182;-91
2023/01/08 03:00:33;;;;;;;6.68;2.63;;;8.80;99.90;;;;;;4850344;29;20219;-88
2023/01/08 03:03:25;;;;;;;3.25;2.38;;;8.80;99.90;;;;;;4866986;29;20188;-91
2023/01/08 03:05:56;;;;;;;3.80;2.60;;;8.80;99.90;;;;;;4849615;29;20191;-87
2023/01/08 03:08:23;;;;;;;3.35;2.65;;;8.80;99.90;;;;;;4849135;29;20176;-88
2023/01/08 03:10:54;;;;;;;3.97;2.28;;;8.80;99.90;;;;;;4865777;29;20184;-91
2023/01/08 03:13:39;;;;;;;3.58;2.40;;;8.80;99.90;;;;;;4867581;29;20235;-88
2023/01/08 03:16:28;;;;;;;2.60;2.20;;;8.80;99.90;;;;;;4852299;29;20603;-87
2023/01/08 03:19:04;;;;;;;3.83;2.57;;;8.80;99.90;;;;;;4865951;29;20165;-91
2023/01/08 03:21:31;;;;;;;2.55;2.20;;;8.90;99.90;;;;;;4851018;29;20267;-87
2023/01/08 03:23:58;;;;;;;5.10;2.67;;;8.90;99.90;;;;;;4849316;29;20302;-89
2023/01/08 03:26:26;;;;;;;3.95;2.55;;;8.90;99.90;;;;;;4851450;29;20180;-86
2023/01/08 03:28:55;;;;;;;2.43;2.03;;;9.00;99.90;;;;;;4863305;29;20244;-87
2023/01/08 03:31:22;;;;;;;4.97;2.67;;;8.90;99.90;;;;;;4863357;29;20319;-84
2023/01/08 03:33:48;;;;;;;4.43;2.80;;;9.00;99.90;;;;;;4846004;29;20796;-88
2023/01/08 03:36:20;;;;;;;5.07;2.40;;;9.00;99.90;;;;;;4846118;29;20188;-87
2023/01/08 03:39:12;;;;;;;4.07;2.70;;;9.00;99.90;;;;;;4846379;29;20181;-87
2023/01/08 03:41:41;;;;;;;3.72;2.47;;;9.00;99.90;;;;;;4863428;29;20164;-83
2023/01/08 03:44:07;;;;;;;4.28;2.72;;;9.00;99.90;;;;;;4862918;29;20207;-87
2023/01/08 03:46:39;;;;;;;3.30;2.57;;;9.10;99.90;;;;;;4846425;29;20511;-87
2023/01/08 03:49:06;;;;;;;6.05;2.55;;;9.10;99.90;;;;;;4847739;29;20565;-87
2023/01/08 03:51:40;;;;;;;4.45;2.35;;;9.20;99.90;;;;;;4846767;29;20181;-93
2023/01/08 03:54:10;;;;;;;4.15;2.25;;;9.20;99.90;;;;;;4846429;29;20220;-88
2023/01/08 03:56:40;;;;;;;4.32;2.67;;;9.20;99.90;;;;;;4866559;29;20187;-86
2023/01/08 03:59:06;;;;;;;5.22;2.35;;;9.30;99.90;;;;;;4867350;29;20260;-87
2023/01/08 04:01:32;;;;;;;5.88;2.90;;;9.30;99.90;;;;;;4850767;29;20229;-89
2023/01/08 04:03:57;;;;;;;3.53;2.40;;;9.30;99.90;;;;;;4866133;29;20196;-88
2023/01/08 04:06:23;;;;;;;4.25;2.40;;;9.30;99.90;;;;;;4866267;29;20180;-91
2023/01/08 04:08:49;;;;;;;3.47;2.53;;;9.30;99.90;;;;;;4851866;29;20271;-93
2023/01/08 04:11:15;;;;;;;4.25;2.58;;;9.30;99.90;;;;;;4853287;29;20204;-86
2023/01/08 04:13:41;;;;;;;3.17;1.98;;;9.30;99.90;;;;;;4867927;29;20251;-92
2023/01/08 04:16:07;;;;;;;4.43;2.47;;;9.30;99.90;;;;;;4866712;29;20449;-92
2023/01/08 04:18:33;;;;;;;5.30;2.60;;;9.30;99.90;;;;;;4869335;29;20219;-91
2023/01/08 04:20:59;;;;;;;3.30;2.40;;;9.20;99.90;;;;;;4867070;29;20609;-92
2023/01/08 04:23:25;;;;;;;5.75;2.72;;;9.20;99.90;;;;;;4857163;29;20691;-92
2023/01/08 04:25:52;;;;;;;3.00;2.50;;;9.20;99.90;;;;;;4852811;29;20192;-86
2023/01/08 04:28:20;;;;;;;3.63;1.98;;;9.20;99.90;;;;;;4852712;29;20181;-93
2023/01/08 04:30:45;;;;;;;2.75;2.20;;;9.30;99.90;;;;;;4868774;29;20185;-90
2023/01/08 04:33:11;;;;;;;5.47;2.20;;;9.20;99.90;;;;;;4852847;29;20550;-94
2023/01/08 04:35:39;;;;;;;5.20;2.13;;;9.20;99.90;;;;;;4852122;29;20199;-86
2023/01/08 04:38:05;;;;;;;2.38;1.95;;;9.30;99.90;;;;;;4850890;29;20224;-92
2023/01/08 04:40:32;;;;;;;4.30;2.40;;;9.30;99.90;;;;;;4868976;29;20196;-87
2023/01/08 04:42:58;;;;;;;3.30;2.17;;;9.30;99.90;;;;;;4849870;29;20215;-88
2023/01/08 04:45:25;;;;;;;2.10;1.90;;;9.30;99.90;;;;;;4849525;29;20180;-92
2023/01/08 04:47:58;;;;;;;2.83;2.28;;;9.20;99.90;;;;;;4849330;29;20640;-91
2023/01/08 04:50:25;;;;;;;4.32;2.40;;;9.20;99.90;;;;;;4850096;29;20200;-90
2023/01/08 04:52:50;;;;;;;3.33;2.28;;;9.10;99.90;;;;;;4853899;29;20647;-95
2023/01/08 04:55:16;;;;;;;2.13;1.90;;;9.10;99.90;;;;;;4854754;29;20200;-95
2023/01/08 04:57:44;;;;;;;3.55;2.25;;;9.10;99.90;;;;;;4853113;29;20188;-95
2023/01/08 05:00:11;;;;;;;3.00;2.10;;;9.10;99.90;;;;;;4852741;29;20232;-94
2023/01/08 05:02:38;;;;;;;2.88;2.35;;;9.10;99.90;;;;;;4854589;29;20193;-93
2023/01/08 05:05:04;;;;;;;2.88;2.03;;;9.10;99.90;;;;;;4870189;29;20181;-96
2023/01/08 05:07:36;;;;;;;2.47;2.08;;;9.10;99.90;;;;;;4852304;29;20190;-95
2023/01/08 05:10:02;;;;;;;4.30;2.40;;;9.10;99.90;;;;;;4855449;29;20180;-95
2023/01/08 05:12:28;;;;;;;3.28;2.30;;;9.10;99.90;;;;;;4871159;29;20248;-96
2023/01/08 05:14:53;;;;;;;5.38;2.40;;;9.00;99.90;;;;;;4852367;29;20276;-96
2023/01/08 05:17:21;;;;;;;4.03;2.50;;;9.00;99.90;;;;;;4870089;29;20180;-92
2023/01/08 05:19:47;;;;;;;3.80;2.38;;;9.00;99.90;;;;;;4855193;29;20199;-96
2023/01/08 05:22:12;;;;;;;4.15;2.35;;;9.00;99.90;;;;;;4853684;29;20639;-95
2023/01/08 05:24:38;;;;;;;3.17;2.38;;;8.90;99.90;;;;;;4870352;29;20517;-90
2023/01/08 05:27:06;;;;;;;3.15;2.13;;;9.00;99.90;;;;;;4856410;29;20181;-86
2023/01/08 05:29:32;;;;;;;4.30;2.08;;;9.00;99.90;;;;;;4857375;29;20247;-89
2023/01/08 05:31:57;;;;;;;2.42;1.98;;;8.90;99.90;;;;;;4856369;29;20226;-95
2023/01/08 05:34:23;;;;;;;5.22;2.05;;;9.00;99.90;;;;;;4853316;29;20247;-95
2023/01/08 05:36:54;;;;;;;2.45;2.10;;;8.90;99.90;;;;;;4855040;29;20272;-96
2023/01/08 05:39:20;;;;;;;3.17;2.25;;;8.90;99.90;;;;;;4872502;29;20183;-89
2023/01/08 05:41:45;;;;;;;3.17;2.25;;;8.90;99.90;;;;;;4857288;29;20248;-90
2023/01/08 05:44:11;;;;;;;2.78;2.15;;;8.90;99.90;;;;;;4855879;29;20185;-96
2023/01/08 05:46:39;;;;;;;3.42;2.25;;;8.90;99.90;;;;;;4857066;29;20192;-94
2023/01/08 05:49:05;;;;;;;5.00;2.60;;;8.90;99.90;;;;;;4857392;29;20296;-96
2023/01/08 05:51:30;;;;;;;3.58;2.42;;;9.00;99.90;;;;;;4872975;29;20180;-96
2023/01/08 05:53:56;;;;;;;3.30;2.40;;;9.00;99.90;;;;;;4884333;29;20216;-95
2023/01/08 05:56:22;;;;;;;4.05;2.20;;;9.00;99.90;;;;;;4873001;29;20200;-96
2023/01/08 05:58:48;;;;;;;3.77;2.53;;;9.00;99.90;;;;;;4871577;29;20275;-95
2023/01/08 06:01:17;;;;;;;3.88;2.47;;;9.00;99.90;;;;;;4873552;29;20247;-96
2023/01/08 06:03:43;;;;;;;3.83;2.55;;;9.00;99.90;;;;;;4872130;29;20206;-96
2023/01/08 06:06:11;;;;;;;4.10;2.42;;;9.00;99.90;;;;;;4873833;29;20548;-96
2023/01/08 06:08:37;;;;;;;3.83;2.33;;;9.00;99.90;;;;;;4876527;29;20192;-96
2023/01/08 06:11:06;;;;;;;3.00;2.50;;;9.00;99.90;;;;;;4872383;29;20232;-92
2023/01/08 06:13:33;;;;;;;3.65;2.45;;;9.00;99.90;;;;;;4874630;29;20219;-87
2023/01/08 06:16:00;;;;;;;3.17;2.55;;;9.00;99.90;;;;;;4876661;29;20244;-96
2023/01/08 06:18:27;;;;;;;5.47;2.70;;;9.00;99.90;;;;;;4883445;29;20199;-89
2023/01/08 06:20:53;;;;;;;5.40;2.42;;;9.00;99.90;;;;;;4886399;29;20188;-94
2023/01/08 06:23:19;;;;;;;2.90;2.00;;;9.00;99.90;;;;;;4873625;29;20745;-93
2023/01/08 06:25:53;;;;;;;5.18;2.58;;;8.90;99.90;;;;;;4879443;29;20574;-96
2023/01/08 06:28:22;;;;;;;2.65;1.92;;;8.90;99.90;;;;;;4859422;29;20189;-96
2023/01/08 06:30:47;;;;;;;4.85;2.70;;;8.90;99.90;;;;;;4854622;29;20193;-96
2023/01/08 06:33:13;;;;;;;3.92;2.22;;;8.80;99.90;;;;;;4849456;29;20206;-90
2023/01/08 06:35:39;;;;;;;2.55;2.20;;;8.80;99.90;;;;;;4849768;29;20188;-86
2023/01/08 06:38:07;;;;;;;4.20;1.98;;;8.80;99.90;;;;;;4848387;29;20184;-90
2023/01/08 06:40:33;;;;;;;4.43;2.00;;;8.70;99.90;;;;;;4847751;29;20192;-92
2023/01/08 06:43:03;;;;;;;3.20;1.58;;;8.70;99.90;;;;;;4847214;29;20176;-87
2023/01/08 06:45:29;;;;;;;3.42;2.20;;;8.70;99.90;;;;;;4847125;29;20279;-89
2023/01/08 06:48:00;;;;;;;5.65;1.95;;;8.70;99.90;;;;;;4863187;29;20263;-87
2023/01/08 06:50:27;;;;;;;4.22;2.17;;;8.70;99.90;;;;;;4846869;29;20184;-87
2023/01/08 06:52:54;;;;;;;5.65;2.22;;;8.70;99.90;;;;;;4846476;29;20216;-93
2023/01/08 06:55:20;;;;;;;4.00;2.25;;;8.70;99.90;;;;;;4846297;29;20652;-87
2023/01/08 06:57:46;;;;;;;4.10;2.20;;;8.70;99.90;;;;;;4846820;29;20271;-87
2023/01/08 07:00:12;;;;;;;3.20;2.00;;;8.70;99.90;;;;;;4846514;29;20271;-87
2023/01/08 07:02:38;;;;;;;6.60;2.30;;;8.60;99.90;;;;;;4846670;29;20187;-93
2023/01/08 07:05:04;;;;;;;3.05;2.17;;;8.60;99.90;;;;;;4862974;29;20181;-93
2023/01/08 07:07:31;;;;;;;4.25;2.33;;;8.70;99.90;;;;;;4846509;29;20639;-92
2023/01/08 07:09:57;;;;;;;3.15;2.20;;;8.70;99.90;;;;;;4846033;29;20191;-95
2023/01/08 07:12:23;;;;;;;3.38;2.15;;;8.70;99.90;;;;;;4846589;29;20271;-95
2023/01/08 07:14:49;;;;;;;4.55;2.60;;;8.70;99.90;;;;;;4846331;29;20189;-94
2023/01/08 07:17:15;;;;;;;5.50;2.47;;;8.70;99.90;;;;;;4846123;29;20240;-91
2023/01/08 07:19:42;;;;;;;5.22;2.90;;;8.60;99.90;;;;;;4862912;29;20165;-95
2023/01/08 07:22:08;;;;;;;5.72;3.15;;;8.60;99.90;;;;;;4846034;29;20247;-94
2023/01/08 07:24:34;;;;;;;5.20;3.20;;;8.50;99.90;;;;;;4845991;29;20184;-89
2023/01/08 07:27:00;;;;;;;3.95;2.95;;;8.50;99.90;;;;;;4846209;29;20241;-88
2023/01/08 07:29:26;;;;;;;6.78;3.63;;;8.50;99.90;;;;;;4846475;29;20187;-88
2023/01/08 07:31:52;;;;;;;4.90;2.55;;;8.50;99.90;;;;;;4845780;29;20579;-88
2023/01/08 07:34:18;;;;;;;3.28;2.65;;;8.40;99.90;;;;;;4846099;29;20230;-91
2023/01/08 07:36:44;;;;;;;5.30;2.67;;;8.40;99.90;;;;;;4846167;29;20597;-88
2023/01/08 07:39:09;;;;;;;4.57;2.50;;;8.40;99.90;;;;;;4862431;29;20177;-88
2023/01/08 07:41:35;;;;;;;8.07;2.30;;;8.40;99.90;;;;;;4846148;29;20187;-88
2023/01/08 07:44:01;;;;;;;2.80;2.17;;;8.40;99.90;;;;;;4846147;29;20216;-89
2023/01/08 07:46:26;;;;;;;3.75;2.35;;;8.40;99.90;;;;;;4845996;29;20388;-91
2023/01/08 07:48:56;;;;;;;5.35;2.40;;;8.40;99.90;;;;;;4845885;29;20199;-91
2023/01/08 07:51:22;;;;;;;3.13;2.23;;;8.40;99.90;;;;;;4845962;29;20204;-92
2023/01/08 07:53:50;;;;;;;3.00;2.13;;;8.40;99.90;;;;;;4845352;29;20626;-89
2023/01/08 07:56:15;;;;;;;4.43;2.08;;;8.40;99.90;;;;;;4845863;29;20184;-87
2023/01/08 07:58:42;;;;;;;4.80;2.23;;;8.40;99.90;;;;;;4845610;29;20571;-88
2023/01/08 08:01:10;;;;;;;3.85;2.20;;;8.40;99.90;;;;;;4845929;29;20193;-88
2023/01/08 08:03:37;;;;;;;2.80;1.98;;;8.40;99.90;;;;;;4845634;29;20173;-87
2023/01/08 08:06:03;;;;;;;4.13;2.37;;;8.40;99.90;;;;;;4845677;29;20180;-91
2023/01/08 08:08:29;;;;;;;5.25;2.20;;;8.50;99.90;;;;;;4845399;29;20271;-86
2023/01/08 08:10:54;;;;;;;4.45;2.50;;;8.50;99.90;;;;;;4845750;29;20204;-89
2023/01/08 08:13:20;;;;;;;3.50;2.45;;;8.40;99.90;;;;;;4845549;29;20231;-88
2023/01/08 08:15:46;;;;;;;3.17;1.98;;;8.40;99.90;;;;;;4860986;29;20530;-86
2023/01/08 08:18:13;;;;;;;3.50;2.60;;;8.50;99.90;;;;;;4862120;29;20184;-86
2023/01/08 08:20:38;;;;;;;6.75;2.40;;;8.50;99.90;;;;;;4845557;29;20239;-86
2023/01/08 08:23:08;;;;;;;5.13;2.28;;;8.50;99.90;;;;;;4844877;29;20983;-86
2023/01/08 08:25:35;;;;;;;4.38;2.28;;;8.60;99.90;;;;;;4845072;29;20195;-89
2023/01/08 08:28:05;;;;;;;2.92;2.25;;;8.50;99.90;;;;;;4861967;29;20184;-87
2023/01/08 08:30:32;;;;;;;4.10;2.33;;;8.50;99.90;;;;;;4845445;29;20185;-89
2023/01/08 08:33:00;;;;;;;3.13;2.40;;;8.50;99.90;;;;;;4861414;29;20223;-90
2023/01/08 08:35:26;;;;;;;8.18;2.85;;;8.50;99.90;;;;;;4845103;29;20189;-88
2023/01/08 08:37:53;;;;;;;3.27;2.40;;;8.60;99.90;;;;;;4845493;29;20183;-88
2023/01/08 08:40:19;;;;;;;7.15;3.88;;;8.50;99.90;;;;;;4845878;29;20662;-85
2023/01/08 08:42:44;;;;;;;4.20;2.67;;;8.50;99.90;;;;;;4865441;29;20267;-90
2023/01/08 08:45:10;;;;;;;3.67;2.67;;;8.60;99.90;;;;;;4848961;29;20189;-91
2023/01/08 08:47:37;;;;;;;8.50;2.80;;;8.60;99.90;;;;;;4848689;29;20184;-88
2023/01/08 08:50:04;;;;;;;3.07;2.57;;;8.60;99.90;;;;;;4848842;29;20185;-90
2023/01/08 08:52:31;;;;;;;3.23;2.37;;;8.60;99.90;;;;;;4848723;29;20312;-88
2023/01/08 08:54:57;;;;;;;3.73;2.40;;;8.60;99.90;;;;;;4848262;29;20282;-88
2023/01/08 08:57:26;;;;;;;3.07;2.30;;;8.60;99.90;;;;;;4865152;29;20677;-89
2023/01/08 08:59:52;;;;;;;6.18;2.38;;;8.70;99.90;;;;;;4848627;29;20244;-88
2023/01/08 09:02:18;;;;;;;2.45;2.25;;;8.60;99.90;;;;;;4848596;29;20275;-89
2023/01/08 09:04:44;;;;;;;3.17;2.35;;;8.70;99.90;;;;;;4848478;29;20633;-87
2023/01/08 09:07:09;;;;;;;4.33;2.27;;;8.70;99.90;;;;;;4848435;29;20199;-87
2023/01/08 09:09:36;;;;;;;2.60;2.13;;;8.70;99.90;;;;;;4848215;29;20558;-88
2023/01/08 09:12:02;;;;;;;4.77;2.43;;;8.70;99.90;;;;;;4847430;29;20192;-87
2023/01/08 09:14:28;;;;;;;2.77;2.13;;;8.80;99.90;;;;;;4847749;29;20224;-88
2023/01/08 09:16:54;;;;;;;3.42;2.35;;;8.80;99.90;;;;;;4847882;29;20184;-86
2023/01/08 09:19:21;;;;;;;3.28;2.20;;;8.80;99.90;;;;;;4848208;29;20200;-86
2023/01/08 09:21:47;;;;;;;4.72;2.28;;;8.90;99.90;;;;;;4848078;29;20905;-86
2023/01/08 09:24:13;;;;;;;2.72;2.30;;;8.90;99.90;;;;;;4847652;29;20189;-88
2023/01/08 09:26:39;;;;;;;6.13;2.47;;;8.90;99.90;;;;;;4847877;29;20195;-86
2023/01/08 09:29:05;;;;;;;3.22;2.42;;;8.90;99.90;;;;;;4848120;29;20226;-87
2023/01/08 09:31:30;;;;;;;2.38;1.90;;;8.90;99.90;;;;;;4847915;29;20185;-86
2023/01/08 09:33:56;;;;;;;3.33;2.50;;;8.80;99.90;;;;;;4847760;29;20228;-87
2023/01/08 09:36:22;;;;;;;4.43;2.20;;;8.80;99.90;;;;;;4864351;29;20185;-86
2023/01/08 09:38:48;;;;;;;2.73;2.07;;;8.90;99.90;;;;;;4847528;29;20189;-89
2023/01/08 09:41:29;;;;;;;1.92;1.77;;;8.90;99.90;;;;;;4847649;29;20204;-87
2023/01/08 09:43:57;;;;;;;2.03;1.70;;;8.90;99.90;;;;;;4847742;29;20181;-87
2023/01/08 09:46:26;;;;;;;2.35;1.52;;;9.00;99.90;;;;;;4847683;29;20188;-94
2023/01/08 09:48:59;;;;;;;3.17;2.20;;;9.00;99.90;;;;;;4847577;29;20625;-86
2023/01/08 09:51:34;;;;;;;2.40;1.55;;;9.10;99.90;;;;;;4847462;29;20188;-86
2023/01/08 09:54:00;;;;;;;1.95;1.50;;;9.10;99.90;;;;;;4846704;29;20216;-87
2023/01/08 09:56:26;;;;;;;2.27;1.60;;;9.10;99.90;;;;;;4847321;29;20188;-85
2023/01/08 09:58:58;;;;;;;2.20;1.65;;;9.10;99.90;;;;;;4847586;29;20585;-87
2023/01/08 10:01:28;;;;;;;2.08;1.73;;;9.20;99.90;;;;;;4864121;29;20628;-86
2023/01/08 10:04:05;;;;;;;2.00;1.48;;;9.20;99.90;;;;;;4847469;29;20184;-87
2023/01/08 10:06:31;;;;;;;1.92;1.40;;;9.30;99.90;;;;;;4847263;29;20267;-86
2023/01/08 10:08:57;;;;;;;1.55;1.35;;;9.20;99.90;;;;;;4847000;29;20356;-87
2023/01/08 10:11:27;;;;;;;2.00;1.48;;;9.20;99.90;;;;;;4863934;29;20188;-95
2023/01/08 10:13:55;;;;;;;1.55;1.40;;;9.20;99.90;;;;;;4847523;29;20216;-93
2023/01/08 10:16:36;;;;;;;1.33;1.23;;;9.20;99.90;;;;;;4847675;29;20181;-87
2023/01/08 10:19:04;;;;;;;1.92;1.67;;;9.20;99.90;;;;;;4863884;29;20688;-86
2023/01/08 10:21:38;;;;;;;1.58;1.33;;;9.20;99.90;;;;;;4862041;29;20275;-88
2023/01/08 10:24:04;;;;;;;1.90;1.42;;;9.20;99.90;;;;;;4846407;29;20244;-89
2023/01/08 10:26:36;;;;;;;5.85;1.40;;;9.20;99.90;;;;;;4846643;29;20192;-88
2023/01/08 10:29:16;;;;;;;1.50;1.30;;;9.20;99.90;;;;;;4846867;29;20181;-88
2023/01/08 10:31:48;;;;;;;2.85;1.40;;;9.20;99.90;;;;;;4846620;29;20192;-87
2023/01/08 10:34:24;;;;;;;2.42;1.60;;;9.30;99.90;;;;;;4846802;29;20224;-95
2023/01/08 10:36:50;;;;;;;1.55;1.27;;;9.30;99.90;;;;;;4847000;29;20184;-89
2023/01/08 10:39:36;;;;;;;2.65;1.30;;;9.30;99.90;;;;;;4846549;29;20188;-94
2023/01/08 10:42:05;;;;;;;1.85;1.10;;;9.40;99.90;;;;;;4863355;29;20188;-92
2023/01/08 10:44:32;;;;;;;4.47;1.40;;;9.40;99.90;;;;;;4862115;29;20184;-94
2023/01/08 10:46:59;;;;;;;1.52;1.33;;;9.40;99.90;;;;;;4846792;29;20220;-93
2023/01/08 10:49:30;;;;;;;1.40;1.20;;;9.40;99.90;;;;;;4846792;29;20237;-90
2023/01/08 10:51:57;;;;;;;1.80;1.35;;;9.50;99.90;;;;;;4846767;29;20532;-93
2023/01/08 10:54:43;;;;;;;2.42;1.30;;;9.50;99.90;;;;;;4846443;29;20303;-91
2023/01/08 10:57:27;;;;;;;1.63;1.30;;;9.40;99.90;;;;;;4846496;29;20219;-94
2023/01/08 10:59:54;;;;;;;1.58;1.23;;;9.40;99.90;;;;;;4846549;29;20217;-96
2023/01/08 11:02:39;;;;;;;1.30;1.20;;;9.50;99.90;;;;;;4846626;29;20177;-95
2023/01/08 11:05:09;;;;;;;1.55;1.20;;;9.50;99.90;;;;;;4846142;29;20687;-93
2023/01/08 11:07:35;;;;;;;1.50;1.17;;;9.50;99.90;;;;;;4846566;29;20196;-95
2023/01/08 11:10:05;;;;;;;1.55;1.20;;;9.50;99.90;;;;;;4846037;29;20628;-93
2023/01/08 11:12:37;;;;;;;1.83;1.20;;;9.50;99.90;;;;;;4846660;29;20252;-92
2023/01/08 11:15:18;;;;;;;1.55;1.20;;;9.50;99.90;;;;;;4847009;29;20526;-94
2023/01/08 11:17:45;;;;;;;3.08;1.50;;;9.40;99.90;;;;;;4846170;29;20246;-93
2023/01/08 11:20:29;;;;;;;1.88;1.30;;;9.40;99.90;;;;;;4862812;29;20225;-95
2023/01/08 11:23:05;;;;;;;2.75;1.20;;;9.50;99.90;;;;;;4846324;29;20228;-95
2023/01/08 11:25:31;;;;;;;0.90;0.90;;;9.40;99.90;;;;;;4845973;29;20196;-92
2023/01/08 11:27:59;;;;;;;2.13;1.20;;;9.40;99.90;;;;;;4846373;29;20216;-95
2023/01/08 11:30:31;;;;;;;1.83;1.30;;;9.50;99.90;;;;;;4847193;29;20508;-96
2023/01/08 11:33:04;;;;;;;6.95;1.30;;;9.40;99.90;;;;;;4863780;29;20193;-95
2023/01/08 11:35:41;;;;;;;2.00;1.70;;;9.40;99.90;;;;;;4846813;29;20264;-95
2023/01/08 11:38:10;;;;;;;2.85;2.10;;;9.50;99.90;;;;;;4846508;29;20217;-96
2023/01/08 11:40:49;;;;;;;3.40;1.80;;;9.50;99.90;;;;;;4847191;29;20223;-96
2023/01/08 11:43:39;;;;;;;4.15;2.10;;;9.60;99.90;;;;;;4829495;29;20176;-94
2023/01/08 11:46:21;;;;;;;3.55;2.00;;;9.60;99.90;;;;;;4829353;29;20268;-96
2023/01/08 11:49:21;;;;;;;3.15;1.67;;;9.60;99.90;;;;;;4828637;29;20211;-93
2023/01/08 11:52:16;;;;;;;2.78;1.30;;;9.60;99.90;;;;;;4828270;29;20173;-96
2023/01/08 11:54:50;;;;;;;1.60;1.00;;;9.70;99.90;;;;;;4827831;29;20209;-94
2023/01/08 11:57:40;;;;;;;1.63;1.00;;;9.70;99.90;;;;;;4828123;29;20173;-94
2023/01/08 12:00:26;;;;;;;1.27;0.80;;;9.70;99.90;;;;;;4828580;29;20189;-95
2023/01/08 12:02:56;;;;;;;0.80;0.80;;;9.70;99.90;;;;;;4828105;29;20174;-96
2023/01/08 12:05:40;;;;;;;2.72;0.93;;;9.80;99.90;;;;;;4847907;29;20189;-96
2023/01/08 12:08:15;;;;;;;1.05;0.70;;;9.80;99.90;;;;;;4836039;29;20193;-96
2023/01/08 12:11:03;;;;;;;1.00;0.77;;;9.70;99.90;;;;;;4852660;29;20180;-96
2023/01/08 12:13:45;;;;;;;1.15;0.82;;;9.70;99.90;;;;;;4855510;29;20263;-95
2023/01/08 12:16:14;;;;;;;0.88;0.63;;;9.70;99.90;;;;;;4856619;29;20195;-96
2023/01/08 12:18:45;;;;;;;0.90;0.80;;;9.70;99.90;;;;;;4860068;29;20203;-92
2023/01/08 12:21:29;;;;;;;0.95;0.70;;;9.80;99.90;;;;;;4864200;29;20610;-96
2023/01/08 12:24:21;;;;;;;1.15;0.85;;;9.70;99.90;;;;;;4863763;29;20228;-95
2023/01/08 12:26:56;;;;;;;1.73;0.85;;;9.80;99.90;;;;;;4874585;29;20267;-88
2023/01/08 12:29:42;;;;;;;1.13;0.88;;;9.80;99.90;;;;;;4877755;29;20176;-86
2023/01/08 12:32:23;;;;;;;1.58;0.75;;;9.80;99.90;;;;;;4860853;29;20211;-93
2023/01/08 12:34:55;;;;;;;1.00;0.80;;;9.80;99.90;;;;;;4862734;29;20280;-91
2023/01/08 12:37:33;;;;;;;1.90;0.93;;;9.70;99.90;;;;;;4870265;29;20172;-85
2023/01/08 12:40:06;;;;;;;1.08;0.98;;;9.80;99.90;;;;;;4850257;29;20184;-85
2023/01/08 12:42:37;;;;;;;1.08;0.82;;;9.70;99.90;;;;;;4850001;29;20177;-86
2023/01/08 12:45:06;;;;;;;1.45;0.95;;;9.80;99.90;;;;;;4851026;29;20176;-88
2023/01/08 12:47:35;;;;;;;1.75;1.10;;;9.80;99.90;;;;;;4866831;29;20181;-86
2023/01/08 12:50:19;;;;;;;3.15;1.33;;;9.70;99.90;;;;;;4850505;29;20561;-87
2023/01/08 12:52:57;;;;;;;1.77;1.35;;;9.80;99.90;;;;;;4850083;29;20195;-86
2023/01/08 12:55:53;;;;;;;2.03;1.30;;;9.80;99.90;;;;;;4866875;29;20524;-85
2023/01/08 12:58:35;;;;;;;2.65;1.30;;;9.70;99.90;;;;;;4850232;29;20189;-86
2023/01/08 13:01:01;;;;;;;2.58;1.40;;;9.80;99.90;;;;;;4866539;29;20179;-85
2023/01/08 13:03:29;;;;;;;2.55;1.20;;;9.70;99.90;;;;;;4849824;29;20168;-84
2023/01/08 13:06:07;;;;;;;3.47;1.85;;;9.80;99.90;;;;;;4866053;29;20181;-84
2023/01/08 13:08:34;;;;;;;2.35;1.27;;;9.80;99.90;;;;;;4849782;29;20508;-86
2023/01/08 13:11:01;;;;;;;1.85;1.20;;;9.80;99.90;;;;;;4849030;29;20193;-85
2023/01/08 13:13:27;;;;;;;2.83;1.42;;;9.80;99.90;;;;;;4849734;29;20220;-85